GAP2039 RPLL-RPVE
Flight info
| Callsign | GAP2039 |
|---|---|
| Flight time | 0h 56m |
| Altitude | 25000 |
| Route | VERDE2R VERDE W24 TAPER TAPER7A |
| Aircraft | A320/M-SDE3FGHIRWY/LB1 |
Departure
| Time | 2026-04-25 13:45 |
|---|---|
| Airport | Ninoy Aquino International Airport (RPLL) |
Arrival
| Time | 2026-04-25 14:42 |
|---|---|
| Airport | Godofredo P. Ramos Airport (RPVE) |
| Time | Latitude | Longitude | Altitude | Speed | Heading |
|---|---|---|---|---|---|
| 2026-04-25 12:51 | 14.50598 | 121.00896 | 82 ft | 0 kts | 330° |
| 2026-04-25 13:34 | 14.50594 | 121.00898 | 82 ft | 2 kts | 330° |
| 2026-04-25 13:34 | 14.50581 | 121.00906 | 82 ft | 2 kts | 330° |
| 2026-04-25 13:34 | 14.50568 | 121.00913 | 82 ft | 2 kts | 330° |
| 2026-04-25 13:34 | 14.50555 | 121.00921 | 82 ft | 1 kts | 330° |
| 2026-04-25 13:35 | 14.50547 | 121.00925 | 82 ft | 1 kts | 314° |
| 2026-04-25 13:35 | 14.50542 | 121.00939 | 82 ft | 2 kts | 258° |
| 2026-04-25 13:35 | 14.50544 | 121.00946 | 82 ft | 1 kts | 232° |
| 2026-04-25 13:35 | 14.50548 | 121.00951 | 82 ft | 0 kts | 239° |
| 2026-04-25 13:37 | 14.50547 | 121.00951 | 82 ft | 0 kts | 239° |
| 2026-04-25 13:38 | 14.50544 | 121.00944 | 82 ft | 1 kts | 239° |
| 2026-04-25 13:38 | 14.50535 | 121.00928 | 82 ft | 3 kts | 240° |
| 2026-04-25 13:38 | 14.50525 | 121.00911 | 82 ft | 3 kts | 240° |
| 2026-04-25 13:38 | 14.50512 | 121.00887 | 82 ft | 4 kts | 240° |
| 2026-04-25 13:39 | 14.50494 | 121.00855 | 82 ft | 5 kts | 240° |
| 2026-04-25 13:39 | 14.50463 | 121.00826 | 82 ft | 7 kts | 198° |
| 2026-04-25 13:39 | 14.50409 | 121.00813 | 82 ft | 8 kts | 193° |
| 2026-04-25 13:39 | 14.50363 | 121.00769 | 82 ft | 9 kts | 241° |
| 2026-04-25 13:40 | 14.50328 | 121.00703 | 82 ft | 10 kts | 240° |
| 2026-04-25 13:40 | 14.50288 | 121.00633 | 82 ft | 11 kts | 240° |
| 2026-04-25 13:40 | 14.50244 | 121.00555 | 82 ft | 12 kts | 239° |
| 2026-04-25 13:40 | 14.50197 | 121.00473 | 82 ft | 13 kts | 239° |
| 2026-04-25 13:41 | 14.50151 | 121.00385 | 82 ft | 14 kts | 240° |
| 2026-04-25 13:41 | 14.50100 | 121.00294 | 82 ft | 14 kts | 240° |
| 2026-04-25 13:41 | 14.50047 | 121.00199 | 82 ft | 15 kts | 240° |
| 2026-04-25 13:41 | 14.49992 | 121.00100 | 82 ft | 16 kts | 240° |
| 2026-04-25 13:42 | 14.49940 | 121.00006 | 82 ft | 8 kts | 240° |
| 2026-04-25 13:42 | 14.49898 | 120.99963 | 82 ft | 7 kts | 189° |
| 2026-04-25 13:42 | 14.49847 | 120.99979 | 82 ft | 8 kts | 148° |
| 2026-04-25 13:42 | 14.49801 | 121.00020 | 82 ft | 9 kts | 109° |
| 2026-04-25 13:43 | 14.49822 | 121.00082 | 82 ft | 5 kts | 60° |
| 2026-04-25 13:43 | 14.49824 | 121.00085 | 82 ft | 0 kts | 60° |
| 2026-04-25 13:44 | 14.49836 | 121.00108 | 82 ft | 19 kts | 60° |
| 2026-04-25 13:44 | 14.50030 | 121.00457 | 82 ft | 89 kts | 61° |
| 2026-04-25 13:45 | 14.50441 | 121.01197 | 82 ft | 146 kts | 60° |
| 2026-04-25 13:45 | 14.51010 | 121.02220 | 319 ft | 170 kts | 61° |
| 2026-04-25 13:45 | 14.51591 | 121.03267 | 889 ft | 172 kts | 61° |
| 2026-04-25 13:45 | 14.52178 | 121.04321 | 1554 ft | 169 kts | 60° |
| 2026-04-25 13:46 | 14.52748 | 121.05375 | 2162 ft | 168 kts | 61° |
| 2026-04-25 13:46 | 14.53310 | 121.06424 | 2747 ft | 168 kts | 61° |
| 2026-04-25 13:46 | 14.53878 | 121.07484 | 3324 ft | 170 kts | 61° |
| 2026-04-25 13:46 | 14.54471 | 121.08594 | 3704 ft | 185 kts | 61° |
| 2026-04-25 13:47 | 14.55121 | 121.09817 | 4049 ft | 201 kts | 61° |
| 2026-04-25 13:47 | 14.55832 | 121.11155 | 4352 ft | 222 kts | 61° |
| 2026-04-25 13:47 | 14.56609 | 121.12621 | 4699 ft | 243 kts | 61° |
| 2026-04-25 13:47 | 14.57451 | 121.14208 | 5128 ft | 260 kts | 61° |
| 2026-04-25 13:48 | 14.58333 | 121.15861 | 5751 ft | 269 kts | 61° |
| 2026-04-25 13:48 | 14.59246 | 121.17567 | 6431 ft | 273 kts | 61° |
| 2026-04-25 13:48 | 14.59982 | 121.19388 | 6841 ft | 275 kts | 78° |
| 2026-04-25 13:48 | 14.60212 | 121.21342 | 6964 ft | 277 kts | 85° |
| 2026-04-25 13:49 | 14.60317 | 121.23325 | 6980 ft | 276 kts | 87° |
| 2026-04-25 13:49 | 14.60399 | 121.25314 | 6985 ft | 277 kts | 87° |
| 2026-04-25 13:49 | 14.60456 | 121.27300 | 6984 ft | 276 kts | 92° |
| 2026-04-25 13:49 | 14.59955 | 121.29209 | 6985 ft | 278 kts | 119° |
| 2026-04-25 13:50 | 14.58647 | 121.30684 | 6984 ft | 281 kts | 146° |
| 2026-04-25 13:50 | 14.56841 | 121.31397 | 6990 ft | 284 kts | 169° |
| 2026-04-25 13:50 | 14.54848 | 121.31589 | 6988 ft | 285 kts | 175° |
| 2026-04-25 13:50 | 14.52852 | 121.31669 | 7014 ft | 288 kts | 177° |
| 2026-04-25 13:51 | 14.50808 | 121.31734 | 7509 ft | 294 kts | 177° |
| 2026-04-25 13:51 | 14.48771 | 121.31796 | 8349 ft | 292 kts | 177° |
| 2026-04-25 13:51 | 14.46734 | 121.31863 | 9089 ft | 294 kts | 177° |
| 2026-04-25 13:51 | 14.44696 | 121.31937 | 9774 ft | 297 kts | 177° |
| 2026-04-25 13:52 | 14.42603 | 121.32020 | 10421 ft | 301 kts | 177° |
| 2026-04-25 13:52 | 14.40437 | 121.32055 | 10769 ft | 316 kts | 185° |
| 2026-04-25 13:52 | 14.38262 | 121.31551 | 11059 ft | 331 kts | 197° |
| 2026-04-25 13:52 | 14.36016 | 121.30760 | 11372 ft | 345 kts | 199° |
| 2026-04-25 13:53 | 14.33716 | 121.29931 | 11906 ft | 350 kts | 199° |
| 2026-04-25 13:53 | 14.31385 | 121.29118 | 12524 ft | 352 kts | 199° |
| 2026-04-25 13:53 | 14.29062 | 121.28334 | 13105 ft | 354 kts | 198° |
| 2026-04-25 13:53 | 14.26695 | 121.27552 | 13655 ft | 357 kts | 198° |
| 2026-04-25 13:54 | 14.24289 | 121.26769 | 14186 ft | 359 kts | 198° |
| 2026-04-25 13:54 | 14.21880 | 121.25992 | 14702 ft | 362 kts | 198° |
| 2026-04-25 13:54 | 14.19456 | 121.25214 | 15199 ft | 365 kts | 198° |
| 2026-04-25 13:54 | 14.17028 | 121.24435 | 15662 ft | 367 kts | 198° |
| 2026-04-25 13:55 | 14.14568 | 121.23649 | 16119 ft | 370 kts | 198° |
| 2026-04-25 13:55 | 14.12084 | 121.22856 | 16567 ft | 373 kts | 198° |
| 2026-04-25 13:55 | 14.09577 | 121.22056 | 17012 ft | 375 kts | 198° |
| 2026-04-25 13:55 | 14.07090 | 121.21263 | 17445 ft | 377 kts | 198° |
| 2026-04-25 13:56 | 14.04563 | 121.20457 | 17874 ft | 379 kts | 198° |
| 2026-04-25 13:56 | 14.02025 | 121.19648 | 18297 ft | 382 kts | 198° |
| 2026-04-25 13:56 | 13.99444 | 121.18825 | 18721 ft | 383 kts | 198° |
| 2026-04-25 13:56 | 13.96890 | 121.18013 | 19127 ft | 385 kts | 198° |
| 2026-04-25 13:57 | 13.94296 | 121.17187 | 19527 ft | 387 kts | 198° |
| 2026-04-25 13:57 | 13.92605 | 121.16648 | 19783 ft | 389 kts | 198° |
| 2026-04-25 13:57 | 13.89114 | 121.15537 | 20302 ft | 391 kts | 198° |
| 2026-04-25 13:57 | 13.86467 | 121.14693 | 20681 ft | 393 kts | 198° |
| 2026-04-25 13:58 | 13.83849 | 121.13861 | 21057 ft | 395 kts | 198° |
| 2026-04-25 13:58 | 13.81183 | 121.13013 | 21426 ft | 396 kts | 199° |
| 2026-04-25 13:58 | 13.78558 | 121.12178 | 21774 ft | 398 kts | 199° |
| 2026-04-25 13:58 | 13.75871 | 121.11324 | 22138 ft | 400 kts | 199° |
| 2026-04-25 13:59 | 13.73204 | 121.10476 | 22581 ft | 398 kts | 199° |
| 2026-04-25 13:59 | 13.70577 | 121.09640 | 23001 ft | 398 kts | 199° |
| 2026-04-25 13:59 | 13.67903 | 121.08790 | 23412 ft | 397 kts | 199° |
| 2026-04-25 13:59 | 13.65256 | 121.07947 | 23769 ft | 399 kts | 199° |
| 2026-04-25 14:00 | 13.62596 | 121.07100 | 24105 ft | 400 kts | 199° |
| 2026-04-25 14:00 | 13.59927 | 121.06252 | 24449 ft | 402 kts | 199° |
| 2026-04-25 14:00 | 13.57227 | 121.05394 | 24797 ft | 403 kts | 199° |
| 2026-04-25 14:00 | 13.54532 | 121.04539 | 24967 ft | 405 kts | 198° |
| 2026-04-25 14:01 | 13.51755 | 121.04045 | 24954 ft | 409 kts | 181° |
| 2026-04-25 14:01 | 13.48943 | 121.04507 | 24968 ft | 412 kts | 162° |
| 2026-04-25 14:01 | 13.46361 | 121.05885 | 24989 ft | 416 kts | 148° |
| 2026-04-25 14:01 | 13.43985 | 121.07581 | 24997 ft | 417 kts | 147° |
| 2026-04-25 14:02 | 13.41596 | 121.09305 | 25004 ft | 417 kts | 147° |
| 2026-04-25 14:02 | 13.39221 | 121.10999 | 25017 ft | 417 kts | 147° |
| 2026-04-25 14:02 | 13.36820 | 121.12696 | 25022 ft | 417 kts | 147° |
| 2026-04-25 14:02 | 13.35216 | 121.13824 | 25026 ft | 416 kts | 147° |
| 2026-04-25 14:03 | 13.32009 | 121.16075 | 25031 ft | 416 kts | 147° |
| 2026-04-25 14:03 | 13.29609 | 121.17758 | 25033 ft | 416 kts | 147° |
| 2026-04-25 14:03 | 13.27232 | 121.19424 | 25028 ft | 417 kts | 147° |
| 2026-04-25 14:03 | 13.24821 | 121.21115 | 25021 ft | 417 kts | 147° |
| 2026-04-25 14:04 | 13.22430 | 121.22791 | 25008 ft | 417 kts | 147° |
| 2026-04-25 14:04 | 13.20044 | 121.24463 | 24995 ft | 417 kts | 147° |
| 2026-04-25 14:04 | 13.17646 | 121.26144 | 24989 ft | 416 kts | 147° |
| 2026-04-25 14:04 | 13.15247 | 121.27826 | 24992 ft | 416 kts | 147° |
| 2026-04-25 14:05 | 13.12859 | 121.29500 | 24994 ft | 416 kts | 147° |
| 2026-04-25 14:05 | 13.10444 | 121.31191 | 24997 ft | 415 kts | 147° |
| 2026-04-25 14:05 | 13.08043 | 121.32873 | 24998 ft | 415 kts | 147° |
| 2026-04-25 14:05 | 13.05667 | 121.34537 | 24999 ft | 414 kts | 147° |
| 2026-04-25 14:06 | 13.03289 | 121.36201 | 25001 ft | 414 kts | 147° |
| 2026-04-25 14:06 | 13.00901 | 121.37872 | 25000 ft | 414 kts | 147° |
| 2026-04-25 14:06 | 12.98522 | 121.39535 | 24997 ft | 414 kts | 147° |
| 2026-04-25 14:06 | 12.96121 | 121.41215 | 24996 ft | 414 kts | 147° |
| 2026-04-25 14:07 | 12.93736 | 121.42883 | 24990 ft | 414 kts | 147° |
| 2026-04-25 14:07 | 12.91355 | 121.44548 | 24983 ft | 414 kts | 147° |
| 2026-04-25 14:07 | 12.88972 | 121.46214 | 24979 ft | 414 kts | 147° |
| 2026-04-25 14:07 | 12.86534 | 121.47919 | 24925 ft | 411 kts | 147° |
| 2026-04-25 14:08 | 12.84181 | 121.49564 | 24279 ft | 406 kts | 147° |
| 2026-04-25 14:08 | 12.81816 | 121.51212 | 23049 ft | 411 kts | 147° |
| 2026-04-25 14:08 | 12.79476 | 121.52845 | 22480 ft | 405 kts | 147° |
| 2026-04-25 14:08 | 12.77127 | 121.54484 | 21937 ft | 404 kts | 146° |
| 2026-04-25 14:09 | 12.74822 | 121.56094 | 20927 ft | 409 kts | 146° |
| 2026-04-25 14:09 | 12.72446 | 121.57752 | 19975 ft | 414 kts | 146° |
| 2026-04-25 14:09 | 12.70080 | 121.59403 | 19373 ft | 411 kts | 146° |
| 2026-04-25 14:09 | 12.68504 | 121.60502 | 19027 ft | 408 kts | 146° |
| 2026-04-25 14:10 | 12.65384 | 121.62678 | 18313 ft | 402 kts | 146° |
| 2026-04-25 14:10 | 12.63079 | 121.64286 | 17777 ft | 399 kts | 146° |
| 2026-04-25 14:10 | 12.60785 | 121.65884 | 17249 ft | 396 kts | 146° |
| 2026-04-25 14:10 | 12.58509 | 121.67471 | 16724 ft | 392 kts | 146° |
| 2026-04-25 14:11 | 12.56268 | 121.69034 | 16188 ft | 390 kts | 146° |
| 2026-04-25 14:11 | 12.54020 | 121.70602 | 15653 ft | 388 kts | 146° |
| 2026-04-25 14:11 | 12.51790 | 121.72156 | 15127 ft | 385 kts | 146° |
| 2026-04-25 14:11 | 12.49577 | 121.73698 | 14602 ft | 383 kts | 146° |
| 2026-04-25 14:12 | 12.47374 | 121.75233 | 14079 ft | 381 kts | 146° |
| 2026-04-25 14:12 | 12.45199 | 121.76746 | 13567 ft | 378 kts | 146° |
| 2026-04-25 14:12 | 12.43028 | 121.78257 | 13042 ft | 376 kts | 146° |
| 2026-04-25 14:12 | 12.40875 | 121.79755 | 12513 ft | 373 kts | 146° |
| 2026-04-25 14:13 | 12.38721 | 121.81249 | 11998 ft | 370 kts | 146° |
| 2026-04-25 14:13 | 12.36499 | 121.82549 | 11480 ft | 367 kts | 154° |
| 2026-04-25 14:13 | 12.34116 | 121.83504 | 11028 ft | 362 kts | 161° |
| 2026-04-25 14:13 | 12.31746 | 121.84233 | 10651 ft | 354 kts | 163° |
| 2026-04-25 14:14 | 12.29386 | 121.84923 | 10276 ft | 347 kts | 163° |
| 2026-04-25 14:14 | 12.27069 | 121.85598 | 9999 ft | 337 kts | 163° |
| 2026-04-25 14:14 | 12.24840 | 121.86252 | 9723 ft | 329 kts | 162° |
| 2026-04-25 14:14 | 12.22668 | 121.86892 | 9409 ft | 323 kts | 162° |
| 2026-04-25 14:15 | 12.20518 | 121.87529 | 9086 ft | 316 kts | 162° |
| 2026-04-25 14:15 | 12.19109 | 121.87946 | 9000 ft | 308 kts | 162° |
| 2026-04-25 14:15 | 12.16456 | 121.88734 | 8961 ft | 289 kts | 162° |
| 2026-04-25 14:15 | 12.14544 | 121.89302 | 8605 ft | 288 kts | 161° |
| 2026-04-25 14:16 | 12.12585 | 121.89884 | 8202 ft | 288 kts | 161° |
| 2026-04-25 14:16 | 12.10668 | 121.90455 | 8010 ft | 282 kts | 161° |
| 2026-04-25 14:16 | 12.08830 | 121.91000 | 8000 ft | 267 kts | 161° |
| 2026-04-25 14:16 | 12.07089 | 121.91516 | 7997 ft | 252 kts | 161° |
| 2026-04-25 14:17 | 12.05430 | 121.92008 | 8001 ft | 244 kts | 160° |
| 2026-04-25 14:17 | 12.03786 | 121.92439 | 8000 ft | 246 kts | 172° |
| 2026-04-25 14:17 | 12.02085 | 121.92142 | 8000 ft | 253 kts | 206° |
| 2026-04-25 14:17 | 12.00783 | 121.90933 | 8005 ft | 257 kts | 240° |
| 2026-04-25 14:18 | 12.00300 | 121.89211 | 8008 ft | 257 kts | 273° |
| 2026-04-25 14:18 | 12.00783 | 121.87466 | 8011 ft | 253 kts | 306° |
| 2026-04-25 14:18 | 12.02033 | 121.86279 | 8011 ft | 247 kts | 338° |
| 2026-04-25 14:18 | 12.03655 | 121.85737 | 8017 ft | 244 kts | 348° |
| 2026-04-25 14:19 | 12.05313 | 121.85297 | 8010 ft | 244 kts | 348° |
| 2026-04-25 14:19 | 12.06946 | 121.84844 | 8008 ft | 244 kts | 347° |
| 2026-04-25 14:19 | 12.08608 | 121.84364 | 8009 ft | 244 kts | 347° |
| 2026-04-25 14:19 | 12.10268 | 121.84006 | 7996 ft | 241 kts | 5° |
| 2026-04-25 14:20 | 12.11820 | 121.84464 | 8002 ft | 235 kts | 36° |
| 2026-04-25 14:20 | 12.12631 | 121.85207 | 8005 ft | 233 kts | 55° |
| 2026-04-25 14:20 | 12.13311 | 121.87257 | 8010 ft | 232 kts | 92° |
| 2026-04-25 14:20 | 12.12894 | 121.88841 | 8010 ft | 235 kts | 119° |
| 2026-04-25 14:21 | 12.11750 | 121.90045 | 8010 ft | 241 kts | 148° |
| 2026-04-25 14:21 | 12.10164 | 121.90646 | 8018 ft | 244 kts | 161° |
| 2026-04-25 14:21 | 12.08519 | 121.91117 | 8012 ft | 244 kts | 161° |
| 2026-04-25 14:21 | 12.06908 | 121.91582 | 7861 ft | 240 kts | 160° |
| 2026-04-25 14:22 | 12.05288 | 121.92059 | 7535 ft | 241 kts | 160° |
| 2026-04-25 14:22 | 12.03663 | 121.92502 | 7235 ft | 243 kts | 169° |
| 2026-04-25 14:22 | 12.01994 | 121.92234 | 7028 ft | 249 kts | 207° |
| 2026-04-25 14:22 | 12.00733 | 121.91007 | 6994 ft | 256 kts | 240° |
| 2026-04-25 14:23 | 12.00250 | 121.89274 | 6927 ft | 254 kts | 272° |
| 2026-04-25 14:23 | 12.00681 | 121.87556 | 6609 ft | 249 kts | 305° |
| 2026-04-25 14:23 | 12.01872 | 121.86337 | 6245 ft | 243 kts | 336° |
| 2026-04-25 14:23 | 12.03438 | 121.85775 | 5939 ft | 237 kts | 350° |
| 2026-04-25 14:24 | 12.05050 | 121.85355 | 5649 ft | 236 kts | 350° |
| 2026-04-25 14:24 | 12.06638 | 121.84925 | 5376 ft | 236 kts | 349° |
| 2026-04-25 14:24 | 12.08225 | 121.84473 | 5110 ft | 234 kts | 349° |
| 2026-04-25 14:24 | 12.09795 | 121.84049 | 5000 ft | 230 kts | 358° |
| 2026-04-25 14:25 | 12.11340 | 121.84227 | 4992 ft | 221 kts | 28° |
| 2026-04-25 14:25 | 12.12547 | 121.85133 | 4995 ft | 214 kts | 54° |
| 2026-04-25 14:25 | 12.13199 | 121.86483 | 4995 ft | 212 kts | 79° |
| 2026-04-25 14:25 | 12.13268 | 121.87490 | 4996 ft | 214 kts | 95° |
| 2026-04-25 14:26 | 12.12507 | 121.89346 | 4994 ft | 221 kts | 128° |
| 2026-04-25 14:26 | 12.11237 | 121.90274 | 4994 ft | 229 kts | 154° |
| 2026-04-25 14:26 | 12.09692 | 121.90767 | 4999 ft | 231 kts | 159° |
| 2026-04-25 14:26 | 12.08132 | 121.91222 | 4995 ft | 231 kts | 159° |
| 2026-04-25 14:27 | 12.06581 | 121.91677 | 4993 ft | 231 kts | 159° |
| 2026-04-25 14:27 | 12.05030 | 121.92136 | 4992 ft | 231 kts | 158° |
| 2026-04-25 14:27 | 12.03456 | 121.92523 | 4984 ft | 236 kts | 172° |
| 2026-04-25 14:27 | 12.01834 | 121.92109 | 4982 ft | 248 kts | 210° |
| 2026-04-25 14:28 | 12.00649 | 121.90842 | 4988 ft | 254 kts | 243° |
| 2026-04-25 14:28 | 12.00247 | 121.89096 | 4990 ft | 254 kts | 276° |
| 2026-04-25 14:28 | 12.00764 | 121.87409 | 4992 ft | 247 kts | 309° |
| 2026-04-25 14:28 | 12.02001 | 121.86255 | 4994 ft | 236 kts | 340° |
| 2026-04-25 14:29 | 12.03544 | 121.85741 | 5000 ft | 232 kts | 351° |
| 2026-04-25 14:29 | 12.05123 | 121.85402 | 4987 ft | 228 kts | 4° |
| 2026-04-25 14:29 | 12.06575 | 121.85801 | 4985 ft | 216 kts | 38° |
| 2026-04-25 14:29 | 12.07618 | 121.86880 | 4991 ft | 212 kts | 61° |
| 2026-04-25 14:30 | 12.08013 | 121.87807 | 4993 ft | 212 kts | 76° |
| 2026-04-25 14:30 | 12.07155 | 121.91100 | 4993 ft | 221 kts | 132° |
| 2026-04-25 14:30 | 12.05821 | 121.91924 | 4993 ft | 230 kts | 156° |
| 2026-04-25 14:31 | 12.04280 | 121.92395 | 4995 ft | 231 kts | 160° |
| 2026-04-25 14:31 | 12.02655 | 121.92469 | 4973 ft | 243 kts | 193° |
| 2026-04-25 14:31 | 12.01240 | 121.91497 | 4984 ft | 252 kts | 233° |
| 2026-04-25 14:31 | 12.00658 | 121.89829 | 4994 ft | 254 kts | 270° |
| 2026-04-25 14:32 | 12.00746 | 121.88039 | 4999 ft | 254 kts | 271° |
| 2026-04-25 14:32 | 12.00385 | 121.86291 | 4988 ft | 254 kts | 243° |
| 2026-04-25 14:32 | 11.99458 | 121.84741 | 4958 ft | 253 kts | 232° |
| 2026-04-25 14:32 | 11.98403 | 121.83295 | 4838 ft | 252 kts | 231° |
| 2026-04-25 14:33 | 11.97350 | 121.81875 | 4721 ft | 252 kts | 231° |
| 2026-04-25 14:33 | 11.96300 | 121.80415 | 4601 ft | 252 kts | 232° |
| 2026-04-25 14:33 | 11.95285 | 121.78970 | 4482 ft | 252 kts | 233° |
| 2026-04-25 14:33 | 11.94272 | 121.77506 | 4363 ft | 251 kts | 233° |
| 2026-04-25 14:34 | 11.93272 | 121.76055 | 4244 ft | 250 kts | 233° |
| 2026-04-25 14:34 | 11.92284 | 121.74630 | 4108 ft | 239 kts | 229° |
| 2026-04-25 14:34 | 11.91053 | 121.73634 | 3964 ft | 217 kts | 191° |
| 2026-04-25 14:34 | 11.89654 | 121.73589 | 3907 ft | 189 kts | 159° |
| 2026-04-25 14:35 | 11.88858 | 121.73916 | 3821 ft | 176 kts | 146° |
| 2026-04-25 14:35 | 11.87544 | 121.74641 | 3768 ft | 155 kts | 143° |
| 2026-04-25 14:35 | 11.86605 | 121.75172 | 3782 ft | 154 kts | 143° |
| 2026-04-25 14:35 | 11.85798 | 121.75619 | 3791 ft | 154 kts | 144° |
| 2026-04-25 14:36 | 11.84855 | 121.76140 | 3796 ft | 152 kts | 138° |
| 2026-04-25 14:36 | 11.84166 | 121.76904 | 3798 ft | 142 kts | 110° |
| 2026-04-25 14:36 | 11.83934 | 121.77857 | 3726 ft | 138 kts | 87° |
| 2026-04-25 14:36 | 11.84133 | 121.78799 | 3535 ft | 137 kts | 66° |
| 2026-04-25 14:37 | 11.84562 | 121.79675 | 3348 ft | 137 kts | 64° |
| 2026-04-25 14:37 | 11.84998 | 121.80539 | 3156 ft | 137 kts | 64° |
| 2026-04-25 14:37 | 11.85432 | 121.81397 | 2976 ft | 136 kts | 64° |
| 2026-04-25 14:37 | 11.85871 | 121.82267 | 2804 ft | 136 kts | 64° |
| 2026-04-25 14:38 | 11.86302 | 121.83123 | 2634 ft | 135 kts | 64° |
| 2026-04-25 14:38 | 11.86731 | 121.83974 | 2465 ft | 135 kts | 64° |
| 2026-04-25 14:38 | 11.87161 | 121.84831 | 2228 ft | 134 kts | 64° |
| 2026-04-25 14:38 | 11.87585 | 121.85675 | 2023 ft | 134 kts | 64° |
| 2026-04-25 14:39 | 11.88008 | 121.86517 | 1834 ft | 133 kts | 64° |
| 2026-04-25 14:39 | 11.88430 | 121.87359 | 1652 ft | 133 kts | 63° |
| 2026-04-25 14:39 | 11.88852 | 121.88197 | 1468 ft | 132 kts | 63° |
| 2026-04-25 14:39 | 11.89278 | 121.89047 | 1288 ft | 132 kts | 63° |
| 2026-04-25 14:40 | 11.89696 | 121.89875 | 1121 ft | 132 kts | 63° |
| 2026-04-25 14:40 | 11.90112 | 121.90714 | 965 ft | 131 kts | 64° |
| 2026-04-25 14:40 | 11.90520 | 121.91538 | 776 ft | 131 kts | 64° |
| 2026-04-25 14:40 | 11.90940 | 121.92374 | 600 ft | 130 kts | 64° |
| 2026-04-25 14:41 | 11.91354 | 121.93190 | 446 ft | 130 kts | 64° |
| 2026-04-25 14:41 | 11.91759 | 121.94016 | 277 ft | 129 kts | 64° |
| 2026-04-25 14:41 | 11.92164 | 121.94823 | 100 ft | 128 kts | 63° |
| 2026-04-25 14:41 | 11.92558 | 121.95602 | 30 ft | 99 kts | 64° |
| 2026-04-25 14:42 | 11.92774 | 121.96033 | 30 ft | 57 kts | 63° |
| 2026-04-25 14:42 | 11.92870 | 121.96222 | 30 ft | 32 kts | 63° |
| 2026-04-25 14:42 | 11.92947 | 121.96377 | 30 ft | 11 kts | 63° |
| 2026-04-25 14:42 | 11.92958 | 121.96453 | 30 ft | 11 kts | 134° |
| 2026-04-25 14:43 | 11.92881 | 121.96493 | 30 ft | 12 kts | 152° |
| 2026-04-25 14:43 | 11.92808 | 121.96525 | 30 ft | 9 kts | 186° |
| 2026-04-25 14:43 | 11.92767 | 121.96473 | 30 ft | 10 kts | 243° |
| 2026-04-25 14:43 | 11.92732 | 121.96403 | 30 ft | 11 kts | 242° |
| 2026-04-25 14:44 | 11.92693 | 121.96326 | 30 ft | 9 kts | 242° |
| 2026-04-25 14:44 | 11.92656 | 121.96317 | 30 ft | 4 kts | 150° |
| 2026-04-25 14:44 | 11.92636 | 121.96329 | 30 ft | 1 kts | 152° |
| 2026-04-25 14:44 | 11.92631 | 121.96332 | 30 ft | 0 kts | 152° |